Time;durP1;ratioP1;P1;durP2;ratioP2;P2;SDS_P1;SDS_P2;PMS_P1;PMS_P2;Temp;Humidity;BMP_temperature;BMP_pressure;BME280_temperature;BME280_humidity;BME280_pressure;Samples;Min_cycle;Max_cycle;Signal;HPM_P1;HPM_P2
2022/10/10 00:01:21;;;;;;;;;7.00;7.00;;;;;;;;5271780;28;8788;-79
2022/10/10 00:03:52;;;;;;;;;6.50;6.50;;;;;;;;5250464;28;8961;-77
2022/10/10 00:06:23;;;;;;;;;8.00;8.00;;;;;;;;5251028;28;8766;-78
2022/10/10 00:08:54;;;;;;;;;5.25;5.25;;;;;;;;5268835;28;8928;-77
2022/10/10 00:11:25;;;;;;;;;4.75;4.75;;;;;;;;5268674;28;8937;-78
2022/10/10 00:14:15;;;;;;;;;6.50;6.50;;;;;;;;5274230;28;8776;-79
2022/10/10 00:17:04;;;;;;;;;7.00;7.00;;;;;;;;5270865;28;8811;-80
2022/10/10 00:19:35;;;;;;;;;5.25;5.25;;;;;;;;5265532;28;8800;-81
2022/10/10 00:22:07;;;;;;;;;6.50;6.50;;;;;;;;5271177;28;9577;-80
2022/10/10 00:24:38;;;;;;;;;7.50;7.50;;;;;;;;5266962;28;8802;-81
2022/10/10 00:27:09;;;;;;;;;8.50;8.50;;;;;;;;5233194;28;9515;-81
2022/10/10 00:29:40;;;;;;;;;6.00;6.00;;;;;;;;5233159;28;8815;-81
2022/10/10 00:32:30;;;;;;;;;5.00;5.00;;;;;;;;5249910;28;8794;-80
2022/10/10 00:35:02;;;;;;;;;6.75;6.75;;;;;;;;5267100;28;8770;-80
2022/10/10 00:37:34;;;;;;;;;6.50;6.50;;;;;;;;5250075;28;8818;-83
2022/10/10 00:40:06;;;;;;;;;5.50;5.50;;;;;;;;5280418;28;8792;-82
2022/10/10 00:42:37;;;;;;;;;5.50;5.50;;;;;;;;5270940;28;8777;-80
2022/10/10 00:45:26;;;;;;;;;6.00;6.00;;;;;;;;5288977;28;9590;-80
2022/10/10 00:48:00;;;;;;;;;6.00;6.00;;;;;;;;5270789;28;8792;-81
2022/10/10 00:50:34;;;;;;;;;7.50;7.50;;;;;;;;5271031;28;8814;-81
2022/10/10 00:53:07;;;;;;;;;5.00;5.00;;;;;;;;5282015;28;8760;-83
2022/10/10 00:55:38;;;;;;;;;8.25;8.25;;;;;;;;5298163;28;8784;-87
2022/10/10 00:58:09;;;;;;;;;5.50;5.50;;;;;;;;5289056;28;8789;-80
2022/10/10 01:00:40;;;;;;;;;7.25;7.25;;;;;;;;5249943;28;8790;-79
2022/10/10 01:03:12;;;;;;;;;5.50;5.50;;;;;;;;5267472;28;8813;-80
2022/10/10 01:05:44;;;;;;;;;7.00;7.00;;;;;;;;5249236;28;8782;-79
2022/10/10 01:08:16;;;;;;;;;7.25;7.25;;;;;;;;5249454;28;8818;-82
2022/10/10 01:11:17;;;;;;;;;3.75;3.75;;;;;;;;5252403;28;8758;-82
2022/10/10 01:13:55;;;;;;;;;4.00;4.00;;;;;;;;5249465;28;8794;-81
2022/10/10 01:17:04;;;;;;;;;6.00;6.00;;;;;;;;5252090;28;8839;-80
2022/10/10 01:19:36;;;;;;;;;6.00;6.00;;;;;;;;5275016;28;8791;-84
2022/10/10 01:22:25;;;;;;;;;7.00;7.00;;;;;;;;5270118;28;8810;-77
2022/10/10 01:24:56;;;;;;;;;5.00;5.00;;;;;;;;5253857;28;8782;-78
2022/10/10 01:27:56;;;;;;;;;4.50;4.50;;;;;;;;5273928;28;8812;-79
2022/10/10 01:30:28;;;;;;;;;6.00;6.00;;;;;;;;5253940;28;8806;-79
2022/10/10 01:33:06;;;;;;;;;6.25;5.50;;;;;;;;5256171;28;8766;-79
2022/10/10 01:35:46;;;;;;;;;5.50;5.50;;;;;;;;5256100;28;8795;-82
2022/10/10 01:38:17;;;;;;;;;6.25;6.25;;;;;;;;5256433;28;8836;-82
2022/10/10 01:40:59;;;;;;;;;8.25;8.00;;;;;;;;5256207;28;8829;-81
2022/10/10 01:43:31;;;;;;;;;6.50;6.50;;;;;;;;5256252;28;8810;-81
2022/10/10 01:46:09;;;;;;;;;5.25;5.25;;;;;;;;5256117;28;9554;-81
2022/10/10 01:48:41;;;;;;;;;7.00;7.00;;;;;;;;5243673;28;8818;-90
2022/10/10 01:51:31;;;;;;;;;7.25;7.25;;;;;;;;5234820;28;8791;-90
2022/10/10 01:54:18;;;;;;;;;6.50;6.50;;;;;;;;5291550;28;8781;-89
2022/10/10 01:57:03;;;;;;;;;6.50;6.50;;;;;;;;5290635;28;8760;-90
2022/10/10 01:59:34;;;;;;;;;4.25;4.25;;;;;;;;5299743;28;9530;-85
2022/10/10 02:02:25;;;;;;;;;7.00;7.00;;;;;;;;5277376;28;8784;-88
2022/10/10 02:05:03;;;;;;;;;8.25;8.00;;;;;;;;5280647;28;8795;-88
2022/10/10 02:07:56;;;;;;;;;10.25;10.25;;;;;;;;5261794;28;8827;-84
2022/10/10 02:10:31;;;;;;;;;12.00;12.00;;;;;;;;5276800;28;8804;-83
2022/10/10 02:13:04;;;;;;;;;10.00;10.00;;;;;;;;5260021;28;8808;-84
2022/10/10 02:15:44;;;;;;;;;8.75;8.75;;;;;;;;5275996;28;8792;-82
2022/10/10 02:18:17;;;;;;;;;11.50;11.50;;;;;;;;5276426;28;9542;-82
2022/10/10 02:20:50;;;;;;;;;0.00;0.00;;;;;;;;5255891;28;8790;-79
2022/10/10 02:23:21;;;;;;;;;11.50;10.50;;;;;;;;5238885;28;8806;-79
2022/10/10 02:25:54;;;;;;;;;12.00;12.00;;;;;;;;5273530;28;9556;-80
2022/10/10 02:28:58;;;;;;;;;11.33;11.33;;;;;;;;5255266;28;8948;-81
2022/10/10 02:31:35;;;;;;;;;8.25;8.25;;;;;;;;5256802;28;9526;-84
2022/10/10 02:34:12;;;;;;;;;14.50;13.75;;;;;;;;5243483;28;8772;-83
2022/10/10 02:36:51;;;;;;;;;8.50;8.00;;;;;;;;5276641;28;9569;-81
2022/10/10 02:39:26;;;;;;;;;10.25;10.25;;;;;;;;5271710;28;8810;-78
2022/10/10 02:41:57;;;;;;;;;6.75;6.75;;;;;;;;5252621;28;8786;-79
2022/10/10 02:44:31;;;;;;;;;6.50;6.50;;;;;;;;5251968;28;8976;-79
2022/10/10 02:47:02;;;;;;;;;5.00;5.00;;;;;;;;5218949;28;8794;-80
2022/10/10 02:49:52;;;;;;;;;7.25;7.25;;;;;;;;5252113;28;8817;-80
2022/10/10 02:52:23;;;;;;;;;6.25;6.25;;;;;;;;5270149;28;8924;-80
2022/10/10 02:54:54;;;;;;;;;8.00;8.00;;;;;;;;5268352;28;8792;-80
2022/10/10 02:57:26;;;;;;;;;7.00;7.00;;;;;;;;5239245;28;9415;-81
2022/10/10 02:59:57;;;;;;;;;7.50;7.50;;;;;;;;5272471;28;8800;-81
2022/10/10 03:02:28;;;;;;;;;8.50;8.50;;;;;;;;5272895;28;8895;-79
2022/10/10 03:04:59;;;;;;;;;10.25;10.25;;;;;;;;5290879;28;8905;-79
2022/10/10 03:07:30;;;;;;;;;7.00;7.00;;;;;;;;5272526;28;8816;-79
2022/10/10 03:10:01;;;;;;;;;7.25;7.25;;;;;;;;5272342;28;8888;-81
2022/10/10 03:12:37;;;;;;;;;7.75;7.50;;;;;;;;5273132;28;8805;-82
2022/10/10 03:15:08;;;;;;;;;7.25;7.25;;;;;;;;5272396;28;8888;-77
2022/10/10 03:17:39;;;;;;;;;8.75;8.75;;;;;;;;5284580;28;8803;-90
2022/10/10 03:20:10;;;;;;;;;7.75;7.75;;;;;;;;5290000;28;8759;-88
2022/10/10 03:22:41;;;;;;;;;7.50;7.50;;;;;;;;5293622;28;8816;-89
2022/10/10 03:25:12;;;;;;;;;17.25;17.00;;;;;;;;5314593;22;8944;-84
2022/10/10 03:27:43;;;;;;;;;16.00;15.75;;;;;;;;5233333;28;9609;-79
2022/10/10 03:30:14;;;;;;;;;14.75;14.75;;;;;;;;5217673;28;8877;-79
2022/10/10 03:32:46;;;;;;;;;12.25;11.50;;;;;;;;5221106;28;8765;-79
2022/10/10 03:35:17;;;;;;;;;14.75;14.75;;;;;;;;5256913;28;8776;-87
2022/10/10 03:38:09;;;;;;;;;13.25;13.25;;;;;;;;5198126;28;8787;-82
2022/10/10 03:40:41;;;;;;;;;16.00;16.00;;;;;;;;5193628;28;8810;-86
2022/10/10 03:43:13;;;;;;;;;13.25;13.25;;;;;;;;5211197;28;8795;-81
2022/10/10 03:45:46;;;;;;;;;18.00;18.00;;;;;;;;5209377;28;8802;-83
2022/10/10 03:48:17;;;;;;;;;15.25;15.25;;;;;;;;5195033;28;9661;-85
2022/10/10 03:50:48;;;;;;;;;11.75;11.75;;;;;;;;5193768;28;8798;-86
2022/10/10 03:53:19;;;;;;;;;12.00;12.00;;;;;;;;5204888;28;8801;-83
2022/10/10 03:55:51;;;;;;;;;18.50;18.50;;;;;;;;5210607;28;8785;-85
2022/10/10 03:58:23;;;;;;;;;24.80;24.00;;;;;;;;5194468;28;8967;-85
2022/10/10 04:01:12;;;;;;;;;17.25;17.25;;;;;;;;5209716;28;8779;-88
2022/10/10 04:03:44;;;;;;;;;18.50;18.50;;;;;;;;5192323;28;9671;-84
2022/10/10 04:06:15;;;;;;;;;30.00;29.40;;;;;;;;5207372;28;8892;-81
2022/10/10 04:08:47;;;;;;;;;26.00;25.80;;;;;;;;5207389;28;8803;-80
2022/10/10 04:11:37;;;;;;;;;20.50;20.00;;;;;;;;5225544;28;9494;-81
2022/10/10 04:14:08;;;;;;;;;14.50;14.50;;;;;;;;5208665;28;8815;-77
2022/10/10 04:16:57;;;;;;;;;13.50;13.50;;;;;;;;5213496;28;8815;-82
2022/10/10 04:19:28;;;;;;;;;8.50;8.50;;;;;;;;5225064;28;8794;-78
2022/10/10 04:21:59;;;;;;;;;8.00;8.00;;;;;;;;5226517;28;8806;-78
2022/10/10 04:24:30;;;;;;;;;13.25;12.25;;;;;;;;5217308;28;8894;-78
2022/10/10 04:27:01;;;;;;;;;14.67;14.67;;;;;;;;5225604;28;8961;-85
2022/10/10 04:29:32;;;;;;;;;13.50;13.50;;;;;;;;5205177;28;11456;-71
2022/10/10 04:32:22;;;;;;;;;10.50;10.25;;;;;;;;5205666;28;8795;-72
2022/10/10 04:34:53;;;;;;;;;8.00;8.00;;;;;;;;5199484;28;8791;-73
2022/10/10 04:37:24;;;;;;;;;15.00;15.00;;;;;;;;5208343;28;8822;-73
2022/10/10 04:39:55;;;;;;;;;17.00;17.00;;;;;;;;5208060;28;8806;-73
2022/10/10 04:42:26;;;;;;;;;19.00;19.00;;;;;;;;5191560;28;9551;-71
2022/10/10 04:44:57;;;;;;;;;26.00;25.00;;;;;;;;5223484;28;8779;-74
2022/10/10 04:47:28;;;;;;;;;28.00;27.80;;;;;;;;5166419;28;8859;-73
2022/10/10 04:50:00;;;;;;;;;21.75;20.75;;;;;;;;5194597;28;8811;-73
2022/10/10 04:52:31;;;;;;;;;20.75;20.75;;;;;;;;5181226;28;8801;-73
2022/10/10 04:55:03;;;;;;;;;18.00;18.00;;;;;;;;5197902;28;8798;-73
2022/10/10 04:57:34;;;;;;;;;20.00;19.75;;;;;;;;5172101;28;8826;-73
2022/10/10 05:00:06;;;;;;;;;19.25;18.50;;;;;;;;5180286;28;8884;-73
2022/10/10 05:02:37;;;;;;;;;24.60;22.40;;;;;;;;5183556;28;8801;-73
2022/10/10 05:05:08;;;;;;;;;25.20;24.40;;;;;;;;5165211;28;9511;-74
2022/10/10 05:07:40;;;;;;;;;24.20;21.40;;;;;;;;5201579;28;8834;-72
2022/10/10 05:10:11;;;;;;;;;23.20;23.20;;;;;;;;5155181;28;8778;-73
2022/10/10 05:12:42;;;;;;;;;25.80;24.00;;;;;;;;5196329;28;8777;-73
2022/10/10 05:15:14;;;;;;;;;26.00;23.40;;;;;;;;5165621;28;8803;-73
2022/10/10 05:17:45;;;;;;;;;16.80;16.80;;;;;;;;5199156;28;9569;-74
2022/10/10 05:20:17;;;;;;;;;21.00;21.00;;;;;;;;5163582;28;8771;-73
2022/10/10 05:22:48;;;;;;;;;20.80;20.80;;;;;;;;5178765;28;8781;-73
2022/10/10 05:25:19;;;;;;;;;18.00;17.75;;;;;;;;5178018;28;8847;-73
2022/10/10 05:27:50;;;;;;;;;17.75;17.75;;;;;;;;5183753;28;8853;-73
2022/10/10 05:30:22;;;;;;;;;16.50;16.50;;;;;;;;5196679;28;8787;-73
2022/10/10 05:32:53;;;;;;;;;19.60;19.40;;;;;;;;5179194;28;8775;-73
2022/10/10 05:35:24;;;;;;;;;17.50;17.50;;;;;;;;5194822;28;8838;-73
2022/10/10 05:37:56;;;;;;;;;19.40;19.40;;;;;;;;5179157;28;8797;-72
2022/10/10 05:40:46;;;;;;;;;22.40;22.40;;;;;;;;5216789;28;8806;-72
2022/10/10 05:43:18;;;;;;;;;22.40;22.40;;;;;;;;5174648;28;8813;-71
2022/10/10 05:46:08;;;;;;;;;25.80;25.80;;;;;;;;5193228;28;8795;-70
2022/10/10 05:48:39;;;;;;;;;27.60;26.60;;;;;;;;5196337;28;9522;-70
2022/10/10 05:51:12;;;;;;;;;34.60;32.80;;;;;;;;5170137;28;8785;-72
2022/10/10 05:53:43;;;;;;;;;29.00;26.40;;;;;;;;5182085;28;8799;-71
2022/10/10 05:56:15;;;;;;;;;31.00;30.80;;;;;;;;5195772;28;8819;-71
2022/10/10 05:58:48;;;;;;;;;25.20;24.40;;;;;;;;5167070;28;8803;-72
2022/10/10 06:01:19;;;;;;;;;19.40;19.40;;;;;;;;5199102;28;8795;-70
2022/10/10 06:03:54;;;;;;;;;17.20;17.20;;;;;;;;5192529;28;8803;-71
2022/10/10 06:06:26;;;;;;;;;22.75;22.75;;;;;;;;5204245;28;8795;-67
2022/10/10 06:08:58;;;;;;;;;18.00;16.50;;;;;;;;5204166;28;8861;-69
2022/10/10 06:11:29;;;;;;;;;26.20;25.60;;;;;;;;5197254;28;8795;-69
2022/10/10 06:14:00;;;;;;;;;14.00;14.00;;;;;;;;5186976;28;8808;-70
2022/10/10 06:16:51;;;;;;;;;18.25;18.25;;;;;;;;5182604;28;8808;-71
2022/10/10 06:19:22;;;;;;;;;21.75;21.75;;;;;;;;5182728;28;8800;-67
2022/10/10 06:22:11;;;;;;;;;21.40;21.40;;;;;;;;5203438;28;8821;-68
2022/10/10 06:24:43;;;;;;;;;13.00;12.75;;;;;;;;5188855;28;8828;-69
2022/10/10 06:27:14;;;;;;;;;10.75;10.75;;;;;;;;5198041;28;8824;-70
2022/10/10 06:30:04;;;;;;;;;14.00;12.50;;;;;;;;5202143;28;8818;-74
2022/10/10 06:32:54;;;;;;;;;12.25;12.00;;;;;;;;5182933;28;8808;-74
2022/10/10 06:35:25;;;;;;;;;13.25;12.75;;;;;;;;5166441;28;8837;-71
2022/10/10 06:38:16;;;;;;;;;12.25;12.25;;;;;;;;5216663;28;8823;-74
2022/10/10 06:40:48;;;;;;;;;12.50;12.25;;;;;;;;5190932;28;8801;-72
2022/10/10 06:43:19;;;;;;;;;7.50;7.50;;;;;;;;5166303;28;8931;-72
2022/10/10 06:45:50;;;;;;;;;6.00;6.00;;;;;;;;5165972;28;8843;-70
2022/10/10 06:48:21;;;;;;;;;7.75;7.75;;;;;;;;5201845;28;8899;-73
2022/10/10 06:50:57;;;;;;;;;7.00;7.00;;;;;;;;5184954;28;8791;-75
2022/10/10 06:53:47;;;;;;;;;6.00;6.00;;;;;;;;5215467;28;9619;-72
2022/10/10 06:56:19;;;;;;;;;5.75;5.75;;;;;;;;5201749;28;8908;-72
2022/10/10 06:58:51;;;;;;;;;6.25;6.25;;;;;;;;5182023;28;8827;-72
2022/10/10 07:01:23;;;;;;;;;7.25;7.25;;;;;;;;5158834;28;8804;-70
2022/10/10 07:03:54;;;;;;;;;10.00;10.00;;;;;;;;5205245;28;8843;-71
2022/10/10 07:06:44;;;;;;;;;5.25;5.25;;;;;;;;5206930;28;8801;-70
2022/10/10 07:09:17;;;;;;;;;6.50;6.50;;;;;;;;5209553;28;8858;-71
2022/10/10 07:11:48;;;;;;;;;6.50;6.50;;;;;;;;5183458;28;8866;-71
2022/10/10 07:14:38;;;;;;;;;6.25;6.00;;;;;;;;5194861;28;8837;-71
2022/10/10 07:17:09;;;;;;;;;4.50;4.50;;;;;;;;5189358;28;8797;-71
2022/10/10 07:19:40;;;;;;;;;6.00;5.75;;;;;;;;5189059;28;9504;-71
2022/10/10 07:22:12;;;;;;;;;9.00;9.00;;;;;;;;5199731;28;8813;-71
2022/10/10 07:24:44;;;;;;;;;6.00;6.00;;;;;;;;5173975;28;8825;-73
2022/10/10 07:27:15;;;;;;;;;8.50;8.50;;;;;;;;5157250;28;9590;-73
2022/10/10 07:29:46;;;;;;;;;7.25;7.25;;;;;;;;5184974;28;8789;-69
2022/10/10 07:32:36;;;;;;;;;5.00;5.00;;;;;;;;5195184;28;8809;-71
2022/10/10 07:35:07;;;;;;;;;5.00;5.00;;;;;;;;5209087;28;8785;-73
2022/10/10 07:37:38;;;;;;;;;6.25;6.25;;;;;;;;5189198;28;8890;-70
2022/10/10 07:40:09;;;;;;;;;5.50;5.50;;;;;;;;5199826;28;8807;-71
2022/10/10 07:42:42;;;;;;;;;8.00;8.00;;;;;;;;5205579;28;8796;-72
2022/10/10 07:45:13;;;;;;;;;4.00;4.00;;;;;;;;5197266;28;8801;-71
2022/10/10 07:47:44;;;;;;;;;6.00;6.00;;;;;;;;5221979;28;8765;-76
2022/10/10 07:50:15;;;;;;;;;10.00;10.00;;;;;;;;5179015;28;9504;-72
2022/10/10 07:52:47;;;;;;;;;10.00;10.00;;;;;;;;5209040;28;8815;-78
2022/10/10 07:55:40;;;;;;;;;8.25;8.25;;;;;;;;5191414;28;9017;-76
2022/10/10 07:58:12;;;;;;;;;3.00;3.00;;;;;;;;5197678;28;8871;-72
2022/10/10 08:00:43;;;;;;;;;6.00;6.00;;;;;;;;5206723;28;9486;-71
2022/10/10 08:03:15;;;;;;;;;6.00;6.00;;;;;;;;5195146;28;8805;-74
2022/10/10 08:05:45;;;;;;;;;8.25;8.25;;;;;;;;5188512;28;8796;-76
2022/10/10 08:08:16;;;;;;;;;7.33;7.33;;;;;;;;5194507;28;8807;-73
2022/10/10 08:10:47;;;;;;;;;4.67;4.67;;;;;;;;5203054;28;12308;-77
2022/10/10 08:13:18;;;;;;;;;2.00;2.00;;;;;;;;5204418;28;11542;-78
2022/10/10 08:15:50;;;;;;;;;5.25;5.25;;;;;;;;5176794;28;8813;-78
2022/10/10 08:18:21;;;;;;;;;5.25;5.25;;;;;;;;5164562;28;8805;-80
2022/10/10 08:21:03;;;;;;;;;2.75;2.75;;;;;;;;5168698;28;8840;-77
2022/10/10 08:23:52;;;;;;;;;2.75;2.75;;;;;;;;5206456;28;8791;-79
2022/10/10 08:26:23;;;;;;;;;2.00;2.00;;;;;;;;5191187;28;8814;-80
2022/10/10 08:28:54;;;;;;;;;4.00;4.00;;;;;;;;5197668;28;9543;-83
2022/10/10 08:31:25;;;;;;;;;2.00;2.00;;;;;;;;5186810;28;11570;-83
2022/10/10 08:33:56;;;;;;;;;2.50;2.50;;;;;;;;5194309;28;8785;-82
2022/10/10 08:36:27;;;;;;;;;9.25;9.25;;;;;;;;5214380;28;9523;-85
2022/10/10 08:38:59;;;;;;;;;1.00;1.00;;;;;;;;5173464;28;8786;-81
2022/10/10 08:41:50;;;;;;;;;1.00;1.00;;;;;;;;5187934;28;9508;-79
2022/10/10 08:44:26;;;;;;;;;0.00;0.00;;;;;;;;5196632;28;8787;-81
2022/10/10 08:47:00;;;;;;;;;6.00;6.00;;;;;;;;5194651;28;8805;-88
2022/10/10 08:49:31;;;;;;;;;2.00;2.00;;;;;;;;5164901;28;8811;-86
2022/10/10 08:52:06;;;;;;;;;3.50;3.50;;;;;;;;5179448;28;8843;-87
2022/10/10 08:54:38;;;;;;;;;3.00;3.00;;;;;;;;5171841;28;8801;-87
2022/10/10 08:57:23;;;;;;;;;2.00;2.00;;;;;;;;5183039;28;8879;-83
2022/10/10 09:00:01;;;;;;;;;4.50;4.50;;;;;;;;5158703;28;8759;-79
2022/10/10 09:02:34;;;;;;;;;1.00;1.00;;;;;;;;5171863;28;8799;-79
2022/10/10 09:05:09;;;;;;;;;3.25;3.25;;;;;;;;5188039;28;8840;-80
2022/10/10 09:07:46;;;;;;;;;4.50;4.50;;;;;;;;5169688;28;8816;-80
2022/10/10 09:10:25;;;;;;;;;8.25;8.25;;;;;;;;5185836;28;8862;-82
2022/10/10 09:13:14;;;;;;;;;5.50;5.50;;;;;;;;5185835;28;8927;-80
2022/10/10 09:15:55;;;;;;;;;6.50;6.50;;;;;;;;5169814;28;8835;-81
2022/10/10 09:18:34;;;;;;;;;5.75;5.75;;;;;;;;5153347;28;8870;-81
2022/10/10 09:21:11;;;;;;;;;9.50;9.50;;;;;;;;5153851;28;8959;-81
2022/10/10 09:23:42;;;;;;;;;2.50;2.50;;;;;;;;5204922;28;8773;-80
2022/10/10 09:26:15;;;;;;;;;1.00;1.00;;;;;;;;5170828;28;8910;-79
2022/10/10 09:29:23;;;;;;;;;1.00;1.00;;;;;;;;5173483;28;8808;-80
2022/10/10 09:32:23;;;;;;;;;2.50;2.50;;;;;;;;5173368;28;8945;-79
2022/10/10 09:34:58;;;;;;;;;10.00;9.75;;;;;;;;5203943;28;8800;-81
2022/10/10 09:37:36;;;;;;;;;1.00;1.00;;;;;;;;5171987;28;8801;-81
2022/10/10 09:40:17;;;;;;;;;1.00;1.00;;;;;;;;5188077;28;8793;-81
2022/10/10 09:42:48;;;;;;;;;2.00;2.00;;;;;;;;5171794;28;8785;-78
2022/10/10 09:45:40;;;;;;;;;2.00;2.00;;;;;;;;5187813;28;8870;-80
2022/10/10 09:48:11;;;;;;;;;4.25;4.25;;;;;;;;5155040;28;8839;-79
2022/10/10 09:50:42;;;;;;;;;5.33;5.33;;;;;;;;5189205;28;8781;-78
2022/10/10 09:53:15;;;;;;;;;4.00;4.00;;;;;;;;5200170;28;9970;-78
2022/10/10 09:56:04;;;;;;;;;3.00;3.00;;;;;;;;5189312;28;11450;-79
2022/10/10 09:58:40;;;;;;;;;3.00;3.00;;;;;;;;5216476;28;8889;-79
2022/10/10 10:01:13;;;;;;;;;2.75;2.75;;;;;;;;5200658;28;9006;-78
2022/10/10 10:03:45;;;;;;;;;6.00;6.00;;;;;;;;5190945;28;8919;-78
2022/10/10 10:06:16;;;;;;;;;8.25;7.50;;;;;;;;5208578;28;8809;-78
2022/10/10 10:08:51;;;;;;;;;6.67;6.67;;;;;;;;5191359;28;8817;-78
2022/10/10 10:11:26;;;;;;;;;2.00;2.00;;;;;;;;5191038;28;8879;-78
2022/10/10 10:14:01;;;;;;;;;2.75;2.75;;;;;;;;5158430;28;8776;-78
2022/10/10 10:16:51;;;;;;;;;4.00;4.00;;;;;;;;5190905;28;9428;-78
2022/10/10 10:19:42;;;;;;;;;4.00;4.00;;;;;;;;5207585;28;8796;-78
2022/10/10 10:22:37;;;;;;;;;1.75;1.75;;;;;;;;5193665;28;8896;-78
2022/10/10 10:25:34;;;;;;;;;2.75;2.75;;;;;;;;5190708;28;8820;-79
2022/10/10 10:28:25;;;;;;;;;0.33;0.33;;;;;;;;5190816;28;8973;-78
2022/10/10 10:31:21;;;;;;;;;1.00;1.00;;;;;;;;5190407;28;8817;-79
2022/10/10 10:33:58;;;;;;;;;0.00;0.00;;;;;;;;5158168;28;8804;-79
2022/10/10 10:36:29;;;;;;;;;1.00;1.00;;;;;;;;5173982;28;8797;-78
2022/10/10 10:39:27;;;;;;;;;0.00;0.00;;;;;;;;5190082;28;8789;-78
2022/10/10 10:42:04;;;;;;;;;2.00;2.00;;;;;;;;5158328;28;8777;-79
2022/10/10 10:44:41;;;;;;;;;2.00;2.00;;;;;;;;5190557;28;8809;-78
2022/10/10 10:47:30;;;;;;;;;1.00;1.00;;;;;;;;5215507;28;8806;-81
2022/10/10 10:50:01;;;;;;;;;0.00;0.00;;;;;;;;5194325;28;8901;-75
2022/10/10 10:52:56;;;;;;;;;0.00;0.00;;;;;;;;5226019;28;8841;-82
2022/10/10 10:55:38;;;;;;;;;0.75;0.75;;;;;;;;5192659;28;8806;-76
2022/10/10 10:58:12;;;;;;;;;2.00;1.50;;;;;;;;5193631;28;8787;-76
2022/10/10 11:00:58;;;;;;;;;3.50;3.50;;;;;;;;5194074;28;8790;-75
2022/10/10 11:03:58;;;;;;;;;13.75;13.75;;;;;;;;5193615;28;8798;-75
2022/10/10 11:06:43;;;;;;;;;26.80;23.00;;;;;;;;5210155;28;8795;-75
2022/10/10 11:09:25;;;;;;;;;6.00;6.00;;;;;;;;5219848;28;8839;-74
2022/10/10 11:12:10;;;;;;;;;2.75;2.75;;;;;;;;5233639;28;8880;-75
2022/10/10 11:14:56;;;;;;;;;1.00;1.00;;;;;;;;5211083;28;8775;-75
2022/10/10 11:18:02;;;;;;;;;1.00;1.00;;;;;;;;5229277;28;8839;-74
2022/10/10 11:20:40;;;;;;;;;0.00;0.00;;;;;;;;5228338;28;9485;-78
2022/10/10 11:23:14;;;;;;;;;1.00;1.00;;;;;;;;5210218;28;8772;-75
2022/10/10 11:25:58;;;;;;;;;0.00;0.00;;;;;;;;5210124;28;8866;-77
2022/10/10 11:28:32;;;;;;;;;1.00;1.00;;;;;;;;5210979;28;8838;-77
2022/10/10 11:31:45;;;;;;;;;18.00;17.25;;;;;;;;5211128;28;9513;-79
2022/10/10 11:34:32;;;;;;;;;3.75;3.75;;;;;;;;5201143;28;8803;-76
2022/10/10 11:37:06;;;;;;;;;1.00;1.00;;;;;;;;5194335;28;8868;-77
2022/10/10 11:39:49;;;;;;;;;10.75;10.50;;;;;;;;5177243;28;8793;-79
2022/10/10 11:42:25;;;;;;;;;1.00;1.00;;;;;;;;5210011;28;8791;-78
2022/10/10 11:45:00;;;;;;;;;1.00;1.00;;;;;;;;5193748;28;8799;-77
2022/10/10 11:47:41;;;;;;;;;1.75;1.75;;;;;;;;5176537;28;8807;-78
2022/10/10 11:50:21;;;;;;;;;1.00;1.00;;;;;;;;5176651;28;8801;-77
2022/10/10 11:53:06;;;;;;;;;3.75;3.75;;;;;;;;5193125;28;8775;-77
2022/10/10 11:55:40;;;;;;;;;1.00;1.00;;;;;;;;5206107;28;8874;-75
2022/10/10 11:58:14;;;;;;;;;1.00;1.00;;;;;;;;5214812;28;8808;-77
2022/10/10 12:00:49;;;;;;;;;1.75;1.75;;;;;;;;5170980;28;8825;-77
2022/10/10 12:03:20;;;;;;;;;5.50;5.50;;;;;;;;5178797;28;9656;-75
2022/10/10 12:06:11;;;;;;;;;3.67;3.67;;;;;;;;5213869;28;9021;-75
2022/10/10 12:08:45;;;;;;;;;11.75;11.75;;;;;;;;5177728;28;11484;-77
2022/10/10 12:11:29;;;;;;;;;9.00;9.00;;;;;;;;5179978;28;8841;-76
2022/10/10 12:14:01;;;;;;;;;12.25;12.25;;;;;;;;5185772;28;8826;-75
2022/10/10 12:16:34;;;;;;;;;11.75;11.75;;;;;;;;5194820;28;8802;-78
2022/10/10 12:19:25;;;;;;;;;11.75;11.75;;;;;;;;5200757;28;9546;-76
2022/10/10 12:21:58;;;;;;;;;27.40;27.20;;;;;;;;5208747;28;9529;-78
2022/10/10 12:24:31;;;;;;;;;51.60;42.00;;;;;;;;5187117;28;8832;-77
2022/10/10 12:27:02;;;;;;;;;32.80;30.60;;;;;;;;5202717;28;8917;-78
2022/10/10 12:29:54;;;;;;;;;17.60;17.60;;;;;;;;5184041;28;8797;-78
2022/10/10 12:32:26;;;;;;;;;8.00;8.00;;;;;;;;5196332;28;10609;-79
2022/10/10 12:34:59;;;;;;;;;4.75;4.75;;;;;;;;5203346;28;8803;-78
2022/10/10 12:37:31;;;;;;;;;1.25;1.25;;;;;;;;5225036;28;8803;-79
2022/10/10 12:40:21;;;;;;;;;3.75;3.75;;;;;;;;5205521;28;8796;-77
2022/10/10 12:43:30;;;;;;;;;29.60;28.20;;;;;;;;5188835;28;9540;-77
2022/10/10 12:46:17;;;;;;;;;21.40;21.00;;;;;;;;5204605;28;8812;-77
2022/10/10 12:49:00;;;;;;;;;14.50;14.50;;;;;;;;5172093;28;8816;-77
2022/10/10 12:51:34;;;;;;;;;8.75;8.75;;;;;;;;5191783;28;8789;-76
2022/10/10 12:54:26;;;;;;;;;7.50;7.50;;;;;;;;5190436;28;8773;-77
2022/10/10 12:57:12;;;;;;;;;12.50;12.50;;;;;;;;5189514;28;8798;-77
2022/10/10 12:59:44;;;;;;;;;12.50;12.25;;;;;;;;5190804;28;8797;-76
2022/10/10 13:02:21;;;;;;;;;13.80;13.80;;;;;;;;5189361;28;8892;-75
2022/10/10 13:05:01;;;;;;;;;12.50;12.50;;;;;;;;5187790;28;8785;-76
2022/10/10 13:07:52;;;;;;;;;8.25;8.00;;;;;;;;5173790;28;8817;-76
2022/10/10 13:10:25;;;;;;;;;9.75;9.25;;;;;;;;5187668;28;8854;-76
2022/10/10 13:13:00;;;;;;;;;18.80;18.80;;;;;;;;5155026;28;8817;-77
2022/10/10 13:15:50;;;;;;;;;11.00;10.80;;;;;;;;5187345;28;9678;-75
2022/10/10 13:18:35;;;;;;;;;10.25;10.25;;;;;;;;5171409;28;8797;-75
2022/10/10 13:21:07;;;;;;;;;11.50;10.25;;;;;;;;5155442;28;8785;-76
2022/10/10 13:24:02;;;;;;;;;6.75;6.75;;;;;;;;5187083;28;8815;-76
2022/10/10 13:26:32;;;;;;;;;6.25;6.00;;;;;;;;5196593;28;8793;-76
2022/10/10 13:29:22;;;;;;;;;7.33;7.00;;;;;;;;5187274;28;8835;-76
2022/10/10 13:31:56;;;;;;;;;6.25;6.25;;;;;;;;5187531;28;8765;-77
2022/10/10 13:34:29;;;;;;;;;14.40;14.40;;;;;;;;5171090;28;8793;-78
2022/10/10 13:37:01;;;;;;;;;18.80;18.20;;;;;;;;5187375;28;8895;-78
2022/10/10 13:39:35;;;;;;;;;21.20;20.20;;;;;;;;5187196;28;8805;-78
2022/10/10 13:42:25;;;;;;;;;26.60;25.20;;;;;;;;5154769;28;8816;-78
2022/10/10 13:44:59;;;;;;;;;26.20;24.40;;;;;;;;5171170;28;8827;-78
2022/10/10 13:47:45;;;;;;;;;49.60;42.00;;;;;;;;5187197;28;8777;-78
2022/10/10 13:50:20;;;;;;;;;54.20;45.00;;;;;;;;5170890;28;8807;-78
2022/10/10 13:53:25;;;;;;;;;48.20;38.60;;;;;;;;5186849;28;8773;-78
2022/10/10 13:56:03;;;;;;;;;25.40;24.00;;;;;;;;5154923;28;9513;-78
2022/10/10 13:58:43;;;;;;;;;59.00;46.60;;;;;;;;5155374;28;8935;-78
2022/10/10 14:01:28;;;;;;;;;51.60;43.20;;;;;;;;5187167;28;8785;-78
2022/10/10 14:04:02;;;;;;;;;54.40;44.60;;;;;;;;5171309;28;8780;-77
2022/10/10 14:06:33;;;;;;;;;67.60;52.20;;;;;;;;5186647;28;8789;-78
2022/10/10 14:09:08;;;;;;;;;63.80;50.80;;;;;;;;5186972;28;8813;-78
2022/10/10 14:11:39;;;;;;;;;78.20;65.20;;;;;;;;5154396;28;8797;-78
2022/10/10 14:14:15;;;;;;;;;82.80;73.00;;;;;;;;5187033;28;9581;-80
2022/10/10 14:17:04;;;;;;;;;80.80;71.00;;;;;;;;5189661;28;8781;-79
2022/10/10 14:19:36;;;;;;;;;61.00;50.00;;;;;;;;5171284;28;9514;-79
2022/10/10 14:22:07;;;;;;;;;53.40;43.20;;;;;;;;5187000;28;9539;-79
2022/10/10 14:24:38;;;;;;;;;40.60;35.80;;;;;;;;5170931;28;8845;-79
2022/10/10 14:27:27;;;;;;;;;50.60;41.40;;;;;;;;5193016;28;9581;-78
2022/10/10 14:29:58;;;;;;;;;38.00;35.75;;;;;;;;5195151;28;8797;-78
2022/10/10 14:32:29;;;;;;;;;28.60;27.60;;;;;;;;5183782;28;8800;-78
2022/10/10 14:35:00;;;;;;;;;39.00;36.00;;;;;;;;5168380;28;8806;-80
2022/10/10 14:37:31;;;;;;;;;29.60;29.00;;;;;;;;5156823;28;11545;-76
2022/10/10 14:40:02;;;;;;;;;26.40;26.00;;;;;;;;5157317;28;8830;-76
2022/10/10 14:42:33;;;;;;;;;18.60;16.40;;;;;;;;5174920;28;8793;-80
2022/10/10 14:45:05;;;;;;;;;32.00;30.20;;;;;;;;5173799;28;8879;-76
2022/10/10 14:47:36;;;;;;;;;45.20;39.00;;;;;;;;5190091;28;8801;-77
2022/10/10 14:50:21;;;;;;;;;52.00;40.00;;;;;;;;5207944;28;8825;-76
2022/10/10 14:52:53;;;;;;;;;52.00;43.40;;;;;;;;5174066;28;8813;-76
2022/10/10 14:55:44;;;;;;;;;51.40;42.00;;;;;;;;5192476;28;8801;-81
2022/10/10 14:58:16;;;;;;;;;51.00;42.80;;;;;;;;5197785;28;8837;-83
2022/10/10 15:00:49;;;;;;;;;31.40;30.20;;;;;;;;5184277;28;8818;-81
2022/10/10 15:03:20;;;;;;;;;40.80;35.00;;;;;;;;5180849;28;8868;-81
2022/10/10 15:06:10;;;;;;;;;38.60;35.20;;;;;;;;5198845;28;8793;-79
2022/10/10 15:08:41;;;;;;;;;34.60;33.40;;;;;;;;5200250;28;8915;-79
2022/10/10 15:11:14;;;;;;;;;41.25;37.75;;;;;;;;5191977;28;9550;-77
2022/10/10 15:13:45;;;;;;;;;41.00;36.80;;;;;;;;5207655;28;11535;-77
2022/10/10 15:16:17;;;;;;;;;19.00;19.00;;;;;;;;5212371;28;8790;-80
2022/10/10 15:18:48;;;;;;;;;24.80;23.20;;;;;;;;5178840;28;8817;-80
2022/10/10 15:21:38;;;;;;;;;34.00;32.00;;;;;;;;5215421;28;9594;-77
2022/10/10 15:24:28;;;;;;;;;30.20;26.40;;;;;;;;5229878;28;8831;-82
2022/10/10 15:26:59;;;;;;;;;28.50;26.00;;;;;;;;5226951;28;8931;-80
2022/10/10 15:29:49;;;;;;;;;33.40;32.40;;;;;;;;5217862;28;11601;-79
2022/10/10 15:32:40;;;;;;;;;32.60;30.20;;;;;;;;5216265;28;8813;-81
2022/10/10 15:35:16;;;;;;;;;23.20;22.20;;;;;;;;5172895;28;9035;-77
2022/10/10 15:37:47;;;;;;;;;37.60;34.20;;;;;;;;5202105;28;8836;-78
2022/10/10 15:40:20;;;;;;;;;50.60;42.20;;;;;;;;5223145;28;8825;-74
2022/10/10 15:42:51;;;;;;;;;43.60;39.00;;;;;;;;5162269;28;8808;-77